Hovedside
METAR-TAF:

METAR-TAF

Lufthavner :

Hasvik lufthavn

Hasvik, Norge

breddegrad: 70-29N, lengdegrad: 022-09E, høyde over havet: 10 m

Gjeldene værobservasjon

Denne rapporten ble laget for 4 timer og 35 minutter siden, klokken 06:20 UTC
Vind 4 kt fra Vest, skiftende mellom Sør og Vest-nordvest
Temperatur 11°C
Luftfuktighet 71%
Trykk 981 hPa
Få skyer i en høyde av 1400 ft
Brutte skyer i en høyde av 4800 ft

METAR: ENHK 210620Z 26004KT 180V290 9999-RA FEW014 BKN048 11/06 Q0981

Tid: 12:55 (10:55 UTC)


TAF: fraværende

Værobservasjoner og værvarsel for over 4000 flyplasser (METAR- og TAF-rapporter).

Tilgjengelige stasjoner er representert av de røde og gule prikkene på kartet.

Hold musepekeren over prikken for å se navnet på stasjonen.

Klikk så for å se værobservasjoner og -varsler.

For å forandre kartet kan du klikke på den grønne knappen med svart kryss for å zoome inn, på den grønne knappen med strek for å zoome ut, eller på de grønne pilene for å se tilstøtende kart.


METAR-TAF: